sensor_id;sensor_type;location;lat;lon;timestamp;P1;durP1;ratioP1;P2;durP2;ratioP2
42742;SDS011;28397;44.552;-0.848;2023-12-29T00:01:32;13.23;;;11.05;;
42742;SDS011;28397;44.552;-0.848;2023-12-29T00:03:58;13.32;;;11.90;;
42742;SDS011;28397;44.552;-0.848;2023-12-29T00:06:23;12.48;;;11.15;;
42742;SDS011;28397;44.552;-0.848;2023-12-29T00:08:49;13.35;;;11.25;;
42742;SDS011;28397;44.552;-0.848;2023-12-29T00:11:19;14.05;;;10.85;;
42742;SDS011;28397;44.552;-0.848;2023-12-29T00:13:45;14.00;;;10.68;;
42742;SDS011;28397;44.552;-0.848;2023-12-29T00:16:11;13.50;;;11.30;;
42742;SDS011;28397;44.552;-0.848;2023-12-29T00:18:37;14.25;;;11.40;;
42742;SDS011;28397;44.552;-0.848;2023-12-29T00:21:03;12.27;;;10.70;;
42742;SDS011;28397;44.552;-0.848;2023-12-29T00:23:29;12.07;;;10.80;;
42742;SDS011;28397;44.552;-0.848;2023-12-29T00:25:54;13.10;;;9.98;;
42742;SDS011;28397;44.552;-0.848;2023-12-29T00:28:20;11.77;;;9.68;;
42742;SDS011;28397;44.552;-0.848;2023-12-29T00:30:45;12.32;;;9.65;;
42742;SDS011;28397;44.552;-0.848;2023-12-29T00:33:11;13.02;;;10.02;;
42742;SDS011;28397;44.552;-0.848;2023-12-29T00:35:37;11.70;;;9.95;;
42742;SDS011;28397;44.552;-0.848;2023-12-29T00:38:04;10.90;;;9.63;;
42742;SDS011;28397;44.552;-0.848;2023-12-29T00:40:30;13.50;;;10.20;;
42742;SDS011;28397;44.552;-0.848;2023-12-29T00:42:55;11.68;;;10.18;;
42742;SDS011;28397;44.552;-0.848;2023-12-29T00:45:21;11.18;;;10.07;;
42742;SDS011;28397;44.552;-0.848;2023-12-29T00:47:47;15.55;;;10.63;;
42742;SDS011;28397;44.552;-0.848;2023-12-29T00:50:13;13.07;;;10.80;;
42742;SDS011;28397;44.552;-0.848;2023-12-29T00:52:39;13.98;;;10.98;;
42742;SDS011;28397;44.552;-0.848;2023-12-29T00:55:05;13.32;;;11.10;;
42742;SDS011;28397;44.552;-0.848;2023-12-29T00:57:31;14.80;;;11.85;;
42742;SDS011;28397;44.552;-0.848;2023-12-29T00:59:56;14.65;;;12.50;;
42742;SDS011;28397;44.552;-0.848;2023-12-29T01:02:22;16.48;;;12.88;;
42742;SDS011;28397;44.552;-0.848;2023-12-29T01:04:48;14.45;;;12.85;;
42742;SDS011;28397;44.552;-0.848;2023-12-29T01:07:13;19.13;;;17.10;;
42742;SDS011;28397;44.552;-0.848;2023-12-29T01:09:39;21.45;;;16.25;;
42742;SDS011;28397;44.552;-0.848;2023-12-29T01:12:05;20.08;;;16.63;;
42742;SDS011;28397;44.552;-0.848;2023-12-29T01:14:31;17.17;;;14.07;;
42742;SDS011;28397;44.552;-0.848;2023-12-29T01:16:57;15.52;;;13.93;;
42742;SDS011;28397;44.552;-0.848;2023-12-29T01:19:22;14.02;;;12.63;;
42742;SDS011;28397;44.552;-0.848;2023-12-29T01:21:48;13.70;;;11.55;;
42742;SDS011;28397;44.552;-0.848;2023-12-29T01:24:13;13.52;;;11.30;;
42742;SDS011;28397;44.552;-0.848;2023-12-29T01:26:39;13.95;;;11.38;;
42742;SDS011;28397;44.552;-0.848;2023-12-29T01:29:05;12.98;;;11.68;;
42742;SDS011;28397;44.552;-0.848;2023-12-29T01:31:33;14.25;;;11.50;;
42742;SDS011;28397;44.552;-0.848;2023-12-29T01:33:59;13.90;;;10.75;;
42742;SDS011;28397;44.552;-0.848;2023-12-29T01:36:25;13.80;;;11.38;;
42742;SDS011;28397;44.552;-0.848;2023-12-29T01:38:50;14.48;;;11.00;;
42742;SDS011;28397;44.552;-0.848;2023-12-29T01:41:19;13.10;;;11.30;;
42742;SDS011;28397;44.552;-0.848;2023-12-29T01:44:27;11.85;;;10.57;;
42742;SDS011;28397;44.552;-0.848;2023-12-29T01:46:45;12.57;;;10.35;;
42742;SDS011;28397;44.552;-0.848;2023-12-29T01:49:15;14.63;;;11.23;;
42742;SDS011;28397;44.552;-0.848;2023-12-29T01:51:44;12.85;;;11.02;;
42742;SDS011;28397;44.552;-0.848;2023-12-29T01:54:14;12.23;;;10.02;;
42742;SDS011;28397;44.552;-0.848;2023-12-29T01:56:39;10.38;;;9.25;;
42742;SDS011;28397;44.552;-0.848;2023-12-29T01:59:06;12.10;;;9.25;;
42742;SDS011;28397;44.552;-0.848;2023-12-29T02:01:31;12.48;;;8.77;;
42742;SDS011;28397;44.552;-0.848;2023-12-29T02:03:57;12.27;;;9.00;;
42742;SDS011;28397;44.552;-0.848;2023-12-29T02:06:23;11.93;;;9.23;;
42742;SDS011;28397;44.552;-0.848;2023-12-29T02:08:50;12.23;;;8.73;;
42742;SDS011;28397;44.552;-0.848;2023-12-29T02:11:17;13.57;;;9.25;;
42742;SDS011;28397;44.552;-0.848;2023-12-29T02:13:43;11.10;;;9.05;;
42742;SDS011;28397;44.552;-0.848;2023-12-29T02:22:10;14.23;;;9.63;;
42742;SDS011;28397;44.552;-0.848;2023-12-29T02:24:36;13.45;;;9.90;;
42742;SDS011;28397;44.552;-0.848;2023-12-29T02:32:31;13.15;;;9.98;;
42742;SDS011;28397;44.552;-0.848;2023-12-29T02:34:59;13.57;;;9.77;;
42742;SDS011;28397;44.552;-0.848;2023-12-29T02:37:27;15.68;;;11.50;;
42742;SDS011;28397;44.552;-0.848;2023-12-29T02:39:56;20.85;;;14.95;;
42742;SDS011;28397;44.552;-0.848;2023-12-29T02:42:23;20.25;;;15.55;;
42742;SDS011;28397;44.552;-0.848;2023-12-29T02:44:49;18.55;;;14.75;;
42742;SDS011;28397;44.552;-0.848;2023-12-29T02:47:14;19.05;;;14.27;;
42742;SDS011;28397;44.552;-0.848;2023-12-29T02:49:42;15.23;;;13.00;;
42742;SDS011;28397;44.552;-0.848;2023-12-29T02:52:07;15.15;;;12.55;;
42742;SDS011;28397;44.552;-0.848;2023-12-29T02:54:33;13.95;;;11.30;;
42742;SDS011;28397;44.552;-0.848;2023-12-29T02:56:59;13.77;;;10.45;;
42742;SDS011;28397;44.552;-0.848;2023-12-29T02:59:24;13.18;;;9.38;;
42742;SDS011;28397;44.552;-0.848;2023-12-29T03:01:50;13.70;;;9.88;;
42742;SDS011;28397;44.552;-0.848;2023-12-29T03:04:16;10.48;;;9.43;;
42742;SDS011;28397;44.552;-0.848;2023-12-29T03:06:41;13.20;;;9.68;;
42742;SDS011;28397;44.552;-0.848;2023-12-29T03:09:07;13.15;;;9.60;;
42742;SDS011;28397;44.552;-0.848;2023-12-29T03:11:33;10.50;;;9.10;;
42742;SDS011;28397;44.552;-0.848;2023-12-29T03:13:58;13.65;;;9.98;;
42742;SDS011;28397;44.552;-0.848;2023-12-29T03:16:24;12.80;;;10.38;;
42742;SDS011;28397;44.552;-0.848;2023-12-29T03:18:49;13.43;;;10.02;;
42742;SDS011;28397;44.552;-0.848;2023-12-29T03:21:15;11.95;;;9.85;;
42742;SDS011;28397;44.552;-0.848;2023-12-29T03:23:41;13.07;;;10.15;;
42742;SDS011;28397;44.552;-0.848;2023-12-29T03:26:06;11.75;;;10.32;;
42742;SDS011;28397;44.552;-0.848;2023-12-29T03:28:32;12.23;;;9.30;;
42742;SDS011;28397;44.552;-0.848;2023-12-29T03:30:58;12.35;;;9.02;;
42742;SDS011;28397;44.552;-0.848;2023-12-29T03:33:23;11.40;;;9.50;;
42742;SDS011;28397;44.552;-0.848;2023-12-29T03:35:49;14.55;;;9.68;;
42742;SDS011;28397;44.552;-0.848;2023-12-29T03:38:15;12.05;;;9.23;;
42742;SDS011;28397;44.552;-0.848;2023-12-29T03:40:40;15.90;;;9.77;;
42742;SDS011;28397;44.552;-0.848;2023-12-29T03:43:06;12.20;;;8.32;;
42742;SDS011;28397;44.552;-0.848;2023-12-29T03:45:32;14.88;;;9.32;;
42742;SDS011;28397;44.552;-0.848;2023-12-29T03:47:58;12.48;;;9.13;;
42742;SDS011;28397;44.552;-0.848;2023-12-29T03:50:23;11.85;;;8.90;;
42742;SDS011;28397;44.552;-0.848;2023-12-29T03:52:49;13.85;;;8.70;;
42742;SDS011;28397;44.552;-0.848;2023-12-29T03:55:15;13.35;;;8.73;;
42742;SDS011;28397;44.552;-0.848;2023-12-29T03:57:42;13.55;;;8.98;;
42742;SDS011;28397;44.552;-0.848;2023-12-29T04:00:11;10.90;;;7.80;;
42742;SDS011;28397;44.552;-0.848;2023-12-29T04:02:38;11.73;;;8.45;;
42742;SDS011;28397;44.552;-0.848;2023-12-29T04:05:03;9.73;;;7.45;;
42742;SDS011;28397;44.552;-0.848;2023-12-29T04:07:31;12.65;;;8.00;;
42742;SDS011;28397;44.552;-0.848;2023-12-29T04:09:56;14.30;;;8.25;;
42742;SDS011;28397;44.552;-0.848;2023-12-29T04:12:22;12.10;;;7.88;;
42742;SDS011;28397;44.552;-0.848;2023-12-29T04:14:48;11.48;;;8.38;;
42742;SDS011;28397;44.552;-0.848;2023-12-29T04:17:13;12.07;;;7.82;;
42742;SDS011;28397;44.552;-0.848;2023-12-29T04:19:40;14.85;;;7.97;;
42742;SDS011;28397;44.552;-0.848;2023-12-29T04:22:06;16.13;;;8.90;;
42742;SDS011;28397;44.552;-0.848;2023-12-29T04:24:32;14.70;;;8.85;;
42742;SDS011;28397;44.552;-0.848;2023-12-29T04:26:58;14.50;;;8.85;;
42742;SDS011;28397;44.552;-0.848;2023-12-29T04:29:24;13.70;;;8.55;;
42742;SDS011;28397;44.552;-0.848;2023-12-29T04:31:51;14.20;;;8.88;;
42742;SDS011;28397;44.552;-0.848;2023-12-29T04:34:17;16.92;;;8.90;;
42742;SDS011;28397;44.552;-0.848;2023-12-29T04:36:42;13.50;;;8.93;;
42742;SDS011;28397;44.552;-0.848;2023-12-29T04:39:08;16.60;;;8.88;;
42742;SDS011;28397;44.552;-0.848;2023-12-29T04:41:34;14.93;;;9.00;;
42742;SDS011;28397;44.552;-0.848;2023-12-29T04:44:00;14.00;;;9.02;;
42742;SDS011;28397;44.552;-0.848;2023-12-29T04:46:25;16.73;;;9.23;;
42742;SDS011;28397;44.552;-0.848;2023-12-29T04:48:51;13.65;;;9.55;;
42742;SDS011;28397;44.552;-0.848;2023-12-29T04:51:18;14.15;;;9.30;;
42742;SDS011;28397;44.552;-0.848;2023-12-29T04:53:44;12.88;;;9.52;;
42742;SDS011;28397;44.552;-0.848;2023-12-29T04:56:10;13.25;;;9.18;;
42742;SDS011;28397;44.552;-0.848;2023-12-29T04:58:35;16.02;;;8.98;;
42742;SDS011;28397;44.552;-0.848;2023-12-29T05:01:01;13.32;;;9.60;;
42742;SDS011;28397;44.552;-0.848;2023-12-29T05:03:26;12.60;;;8.70;;
42742;SDS011;28397;44.552;-0.848;2023-12-29T05:05:52;15.90;;;9.45;;
42742;SDS011;28397;44.552;-0.848;2023-12-29T05:08:18;15.35;;;9.55;;
42742;SDS011;28397;44.552;-0.848;2023-12-29T05:10:43;13.07;;;9.35;;
42742;SDS011;28397;44.552;-0.848;2023-12-29T05:13:09;13.98;;;9.38;;
42742;SDS011;28397;44.552;-0.848;2023-12-29T05:15:34;12.35;;;9.20;;
42742;SDS011;28397;44.552;-0.848;2023-12-29T05:18:00;19.30;;;9.05;;
42742;SDS011;28397;44.552;-0.848;2023-12-29T05:20:26;22.45;;;9.52;;
42742;SDS011;28397;44.552;-0.848;2023-12-29T05:22:51;15.60;;;9.70;;
42742;SDS011;28397;44.552;-0.848;2023-12-29T05:25:17;20.52;;;10.23;;
42742;SDS011;28397;44.552;-0.848;2023-12-29T05:27:43;18.15;;;9.85;;
42742;SDS011;28397;44.552;-0.848;2023-12-29T05:30:09;18.58;;;9.82;;
42742;SDS011;28397;44.552;-0.848;2023-12-29T05:32:35;18.83;;;9.82;;
42742;SDS011;28397;44.552;-0.848;2023-12-29T05:35:01;25.80;;;10.63;;
42742;SDS011;28397;44.552;-0.848;2023-12-29T05:37:27;19.65;;;10.27;;
42742;SDS011;28397;44.552;-0.848;2023-12-29T05:39:52;16.08;;;10.32;;
42742;SDS011;28397;44.552;-0.848;2023-12-29T05:42:18;24.85;;;10.25;;
42742;SDS011;28397;44.552;-0.848;2023-12-29T05:44:44;20.10;;;10.85;;
42742;SDS011;28397;44.552;-0.848;2023-12-29T05:47:09;18.55;;;10.20;;
42742;SDS011;28397;44.552;-0.848;2023-12-29T05:49:35;18.10;;;9.60;;
42742;SDS011;28397;44.552;-0.848;2023-12-29T05:52:05;18.92;;;9.95;;
42742;SDS011;28397;44.552;-0.848;2023-12-29T05:54:31;19.40;;;10.27;;
42742;SDS011;28397;44.552;-0.848;2023-12-29T05:56:57;21.73;;;10.00;;
42742;SDS011;28397;44.552;-0.848;2023-12-29T05:59:23;16.20;;;8.93;;
42742;SDS011;28397;44.552;-0.848;2023-12-29T06:01:49;15.75;;;9.43;;
42742;SDS011;28397;44.552;-0.848;2023-12-29T06:04:15;19.60;;;9.18;;
42742;SDS011;28397;44.552;-0.848;2023-12-29T06:06:43;18.73;;;9.57;;
42742;SDS011;28397;44.552;-0.848;2023-12-29T06:09:09;16.00;;;9.35;;
42742;SDS011;28397;44.552;-0.848;2023-12-29T06:11:35;19.83;;;10.02;;
42742;SDS011;28397;44.552;-0.848;2023-12-29T06:14:02;17.80;;;9.77;;
42742;SDS011;28397;44.552;-0.848;2023-12-29T06:16:28;16.73;;;9.45;;
42742;SDS011;28397;44.552;-0.848;2023-12-29T06:18:55;17.77;;;9.57;;
42742;SDS011;28397;44.552;-0.848;2023-12-29T06:21:21;20.13;;;9.55;;
42742;SDS011;28397;44.552;-0.848;2023-12-29T06:23:47;22.20;;;10.38;;
42742;SDS011;28397;44.552;-0.848;2023-12-29T06:26:17;19.38;;;9.95;;
42742;SDS011;28397;44.552;-0.848;2023-12-29T06:28:47;16.52;;;10.07;;
42742;SDS011;28397;44.552;-0.848;2023-12-29T06:31:12;19.65;;;11.10;;
42742;SDS011;28397;44.552;-0.848;2023-12-29T06:33:42;17.40;;;10.85;;
42742;SDS011;28397;44.552;-0.848;2023-12-29T06:36:08;18.35;;;10.80;;
42742;SDS011;28397;44.552;-0.848;2023-12-29T06:38:35;20.83;;;11.20;;
42742;SDS011;28397;44.552;-0.848;2023-12-29T06:41:01;22.05;;;11.15;;
42742;SDS011;28397;44.552;-0.848;2023-12-29T06:43:29;18.15;;;10.68;;
42742;SDS011;28397;44.552;-0.848;2023-12-29T06:45:54;17.50;;;11.27;;
42742;SDS011;28397;44.552;-0.848;2023-12-29T06:48:20;19.58;;;11.27;;
42742;SDS011;28397;44.552;-0.848;2023-12-29T06:50:46;18.85;;;10.65;;
42742;SDS011;28397;44.552;-0.848;2023-12-29T06:53:11;18.05;;;10.77;;
42742;SDS011;28397;44.552;-0.848;2023-12-29T06:55:37;23.52;;;12.13;;
42742;SDS011;28397;44.552;-0.848;2023-12-29T06:58:04;24.60;;;11.88;;
42742;SDS011;28397;44.552;-0.848;2023-12-29T07:00:30;23.73;;;12.20;;
42742;SDS011;28397;44.552;-0.848;2023-12-29T07:02:56;28.25;;;12.52;;
42742;SDS011;28397;44.552;-0.848;2023-12-29T07:05:21;32.70;;;12.77;;
42742;SDS011;28397;44.552;-0.848;2023-12-29T07:07:47;34.63;;;13.60;;
42742;SDS011;28397;44.552;-0.848;2023-12-29T07:10:13;30.08;;;13.52;;
42742;SDS011;28397;44.552;-0.848;2023-12-29T07:12:40;33.95;;;14.23;;
42742;SDS011;28397;44.552;-0.848;2023-12-29T07:15:06;32.63;;;15.25;;
42742;SDS011;28397;44.552;-0.848;2023-12-29T07:17:32;35.03;;;14.82;;
42742;SDS011;28397;44.552;-0.848;2023-12-29T07:19:58;28.42;;;14.55;;
42742;SDS011;28397;44.552;-0.848;2023-12-29T07:22:23;30.80;;;15.10;;
42742;SDS011;28397;44.552;-0.848;2023-12-29T07:24:49;32.70;;;14.35;;
42742;SDS011;28397;44.552;-0.848;2023-12-29T07:27:15;30.08;;;14.00;;
42742;SDS011;28397;44.552;-0.848;2023-12-29T07:29:40;31.00;;;14.30;;
42742;SDS011;28397;44.552;-0.848;2023-12-29T07:32:06;35.17;;;14.63;;
42742;SDS011;28397;44.552;-0.848;2023-12-29T07:34:32;28.70;;;15.02;;
42742;SDS011;28397;44.552;-0.848;2023-12-29T07:36:58;33.25;;;15.52;;
42742;SDS011;28397;44.552;-0.848;2023-12-29T07:39:24;25.40;;;14.23;;
42742;SDS011;28397;44.552;-0.848;2023-12-29T07:41:50;20.10;;;13.32;;
42742;SDS011;28397;44.552;-0.848;2023-12-29T07:44:16;26.85;;;13.57;;
42742;SDS011;28397;44.552;-0.848;2023-12-29T07:46:42;21.83;;;13.07;;
42742;SDS011;28397;44.552;-0.848;2023-12-29T07:49:12;18.80;;;12.32;;
42742;SDS011;28397;44.552;-0.848;2023-12-29T07:51:41;17.70;;;12.10;;
42742;SDS011;28397;44.552;-0.848;2023-12-29T07:54:07;22.80;;;12.65;;
42742;SDS011;28397;44.552;-0.848;2023-12-29T07:56:33;20.52;;;12.75;;
42742;SDS011;28397;44.552;-0.848;2023-12-29T07:58:59;23.33;;;12.85;;
42742;SDS011;28397;44.552;-0.848;2023-12-29T08:01:25;20.48;;;13.23;;
42742;SDS011;28397;44.552;-0.848;2023-12-29T08:03:52;20.25;;;13.23;;
42742;SDS011;28397;44.552;-0.848;2023-12-29T08:06:17;24.67;;;14.60;;
42742;SDS011;28397;44.552;-0.848;2023-12-29T08:08:43;25.88;;;15.70;;
42742;SDS011;28397;44.552;-0.848;2023-12-29T08:11:15;24.30;;;15.73;;
42742;SDS011;28397;44.552;-0.848;2023-12-29T08:13:46;26.92;;;17.02;;
42742;SDS011;28397;44.552;-0.848;2023-12-29T08:16:14;27.90;;;17.42;;
42742;SDS011;28397;44.552;-0.848;2023-12-29T08:18:39;28.95;;;18.10;;
42742;SDS011;28397;44.552;-0.848;2023-12-29T08:21:05;28.73;;;18.92;;
42742;SDS011;28397;44.552;-0.848;2023-12-29T08:23:31;31.50;;;20.05;;
42742;SDS011;28397;44.552;-0.848;2023-12-29T08:25:57;29.48;;;18.92;;
42742;SDS011;28397;44.552;-0.848;2023-12-29T08:28:23;31.58;;;20.55;;
42742;SDS011;28397;44.552;-0.848;2023-12-29T08:30:49;32.65;;;20.50;;
42742;SDS011;28397;44.552;-0.848;2023-12-29T08:33:15;33.92;;;21.30;;
42742;SDS011;28397;44.552;-0.848;2023-12-29T08:35:41;31.50;;;21.30;;
42742;SDS011;28397;44.552;-0.848;2023-12-29T08:38:07;33.33;;;22.33;;
42742;SDS011;28397;44.552;-0.848;2023-12-29T08:40:33;35.63;;;23.48;;
42742;SDS011;28397;44.552;-0.848;2023-12-29T08:42:58;33.20;;;23.42;;
42742;SDS011;28397;44.552;-0.848;2023-12-29T08:45:26;38.00;;;23.48;;
42742;SDS011;28397;44.552;-0.848;2023-12-29T08:47:52;34.38;;;23.77;;
42742;SDS011;28397;44.552;-0.848;2023-12-29T08:50:17;33.47;;;24.40;;
42742;SDS011;28397;44.552;-0.848;2023-12-29T08:52:43;35.55;;;24.92;;
42742;SDS011;28397;44.552;-0.848;2023-12-29T08:55:09;36.67;;;24.77;;
42742;SDS011;28397;44.552;-0.848;2023-12-29T08:57:35;34.25;;;24.08;;
42742;SDS011;28397;44.552;-0.848;2023-12-29T09:00:00;31.48;;;23.90;;
42742;SDS011;28397;44.552;-0.848;2023-12-29T09:02:26;28.52;;;22.90;;
42742;SDS011;28397;44.552;-0.848;2023-12-29T09:04:52;29.77;;;22.48;;
42742;SDS011;28397;44.552;-0.848;2023-12-29T09:07:17;29.35;;;21.95;;
42742;SDS011;28397;44.552;-0.848;2023-12-29T09:09:43;29.70;;;22.60;;
42742;SDS011;28397;44.552;-0.848;2023-12-29T09:12:09;27.27;;;21.63;;
42742;SDS011;28397;44.552;-0.848;2023-12-29T09:14:34;26.73;;;22.05;;
42742;SDS011;28397;44.552;-0.848;2023-12-29T09:17:00;25.52;;;20.00;;
42742;SDS011;28397;44.552;-0.848;2023-12-29T09:19:26;26.92;;;20.65;;
42742;SDS011;28397;44.552;-0.848;2023-12-29T09:21:52;22.23;;;18.60;;
42742;SDS011;28397;44.552;-0.848;2023-12-29T09:24:18;21.95;;;18.30;;
42742;SDS011;28397;44.552;-0.848;2023-12-29T09:26:43;24.45;;;19.67;;
42742;SDS011;28397;44.552;-0.848;2023-12-29T09:29:09;23.65;;;19.50;;
42742;SDS011;28397;44.552;-0.848;2023-12-29T09:31:35;22.83;;;19.58;;
42742;SDS011;28397;44.552;-0.848;2023-12-29T09:34:01;21.80;;;19.15;;
42742;SDS011;28397;44.552;-0.848;2023-12-29T09:36:27;19.00;;;17.00;;
42742;SDS011;28397;44.552;-0.848;2023-12-29T09:38:52;17.90;;;16.00;;
42742;SDS011;28397;44.552;-0.848;2023-12-29T09:41:18;17.17;;;15.48;;
42742;SDS011;28397;44.552;-0.848;2023-12-29T09:43:46;17.08;;;14.48;;
42742;SDS011;28397;44.552;-0.848;2023-12-29T09:46:14;15.80;;;14.20;;
42742;SDS011;28397;44.552;-0.848;2023-12-29T09:48:43;16.05;;;14.45;;
42742;SDS011;28397;44.552;-0.848;2023-12-29T09:51:13;16.70;;;14.48;;
42742;SDS011;28397;44.552;-0.848;2023-12-29T09:53:40;14.15;;;12.80;;
42742;SDS011;28397;44.552;-0.848;2023-12-29T09:56:07;14.90;;;13.50;;
42742;SDS011;28397;44.552;-0.848;2023-12-29T09:58:34;15.00;;;13.50;;
42742;SDS011;28397;44.552;-0.848;2023-12-29T10:01:03;14.20;;;12.70;;
42742;SDS011;28397;44.552;-0.848;2023-12-29T10:03:32;14.73;;;13.23;;
42742;SDS011;28397;44.552;-0.848;2023-12-29T10:05:59;13.43;;;12.02;;
42742;SDS011;28397;44.552;-0.848;2023-12-29T10:08:28;13.93;;;12.63;;
42742;SDS011;28397;44.552;-0.848;2023-12-29T10:10:57;13.88;;;12.18;;
42742;SDS011;28397;44.552;-0.848;2023-12-29T10:13:25;14.63;;;13.13;;
42742;SDS011;28397;44.552;-0.848;2023-12-29T10:18:45;13.20;;;11.90;;
42742;SDS011;28397;44.552;-0.848;2023-12-29T10:21:27;13.07;;;11.77;;
42742;SDS011;28397;44.552;-0.848;2023-12-29T10:24:03;13.07;;;11.68;;
42742;SDS011;28397;44.552;-0.848;2023-12-29T10:26:35;11.52;;;10.48;;
42742;SDS011;28397;44.552;-0.848;2023-12-29T10:29:01;12.45;;;11.18;;
42742;SDS011;28397;44.552;-0.848;2023-12-29T10:31:27;13.25;;;11.77;;
42742;SDS011;28397;44.552;-0.848;2023-12-29T10:34:14;14.07;;;12.52;;
42742;SDS011;28397;44.552;-0.848;2023-12-29T10:36:55;14.57;;;13.07;;
42742;SDS011;28397;44.552;-0.848;2023-12-29T10:39:22;14.73;;;13.02;;
42742;SDS011;28397;44.552;-0.848;2023-12-29T10:41:48;13.82;;;12.43;;
42742;SDS011;28397;44.552;-0.848;2023-12-29T10:44:15;14.23;;;12.68;;
42742;SDS011;28397;44.552;-0.848;2023-12-29T10:46:41;14.45;;;12.93;;
42742;SDS011;28397;44.552;-0.848;2023-12-29T10:49:11;13.02;;;11.77;;
42742;SDS011;28397;44.552;-0.848;2023-12-29T10:51:38;13.25;;;11.95;;
42742;SDS011;28397;44.552;-0.848;2023-12-29T10:54:04;13.02;;;11.50;;
42742;SDS011;28397;44.552;-0.848;2023-12-29T10:56:30;12.93;;;11.38;;
42742;SDS011;28397;44.552;-0.848;2023-12-29T10:59:00;12.88;;;11.57;;
42742;SDS011;28397;44.552;-0.848;2023-12-29T11:01:34;12.95;;;11.75;;
42742;SDS011;28397;44.552;-0.848;2023-12-29T11:04:01;13.65;;;12.23;;
42742;SDS011;28397;44.552;-0.848;2023-12-29T11:06:28;13.45;;;12.15;;
42742;SDS011;28397;44.552;-0.848;2023-12-29T11:08:55;14.30;;;12.80;;
42742;SDS011;28397;44.552;-0.848;2023-12-29T11:11:21;13.93;;;12.50;;
42742;SDS011;28397;44.552;-0.848;2023-12-29T11:13:48;14.98;;;13.55;;
42742;SDS011;28397;44.552;-0.848;2023-12-29T11:16:15;15.00;;;13.50;;
42742;SDS011;28397;44.552;-0.848;2023-12-29T11:18:46;15.18;;;13.60;;
42742;SDS011;28397;44.552;-0.848;2023-12-29T11:21:14;15.55;;;13.38;;
42742;SDS011;28397;44.552;-0.848;2023-12-29T11:23:41;15.65;;;14.15;;
42742;SDS011;28397;44.552;-0.848;2023-12-29T11:26:06;15.52;;;13.93;;
42742;SDS011;28397;44.552;-0.848;2023-12-29T11:28:32;14.98;;;13.48;;
42742;SDS011;28397;44.552;-0.848;2023-12-29T11:30:58;14.40;;;12.90;;
42742;SDS011;28397;44.552;-0.848;2023-12-29T11:33:30;13.77;;;12.38;;
42742;SDS011;28397;44.552;-0.848;2023-12-29T11:36:07;13.77;;;12.45;;
42742;SDS011;28397;44.552;-0.848;2023-12-29T11:41:31;14.73;;;12.23;;
42742;SDS011;28397;44.552;-0.848;2023-12-29T11:44:04;13.32;;;11.68;;
42742;SDS011;28397;44.552;-0.848;2023-12-29T11:49:03;12.30;;;11.00;;
42742;SDS011;28397;44.552;-0.848;2023-12-29T11:51:30;11.88;;;10.57;;
42742;SDS011;28397;44.552;-0.848;2023-12-29T11:54:00;11.82;;;10.63;;
42742;SDS011;28397;44.552;-0.848;2023-12-29T11:56:46;12.38;;;11.18;;
42742;SDS011;28397;44.552;-0.848;2023-12-29T11:59:12;12.27;;;11.10;;
42742;SDS011;28397;44.552;-0.848;2023-12-29T12:01:39;13.10;;;11.68;;
42742;SDS011;28397;44.552;-0.848;2023-12-29T12:04:51;14.43;;;12.65;;
42742;SDS011;28397;44.552;-0.848;2023-12-29T12:07:05;13.90;;;12.50;;
42742;SDS011;28397;44.552;-0.848;2023-12-29T12:09:33;14.63;;;12.25;;
42742;SDS011;28397;44.552;-0.848;2023-12-29T12:12:00;14.63;;;13.13;;
42742;SDS011;28397;44.552;-0.848;2023-12-29T12:14:46;17.17;;;15.32;;
42742;SDS011;28397;44.552;-0.848;2023-12-29T12:17:30;19.63;;;17.33;;
42742;SDS011;28397;44.552;-0.848;2023-12-29T12:19:58;23.98;;;21.08;;
42742;SDS011;28397;44.552;-0.848;2023-12-29T12:22:24;14.98;;;13.07;;
42742;SDS011;28397;44.552;-0.848;2023-12-29T12:24:58;14.45;;;12.95;;
42742;SDS011;28397;44.552;-0.848;2023-12-29T12:27:25;11.82;;;10.05;;
42742;SDS011;28397;44.552;-0.848;2023-12-29T12:29:55;11.50;;;10.40;;
42742;SDS011;28397;44.552;-0.848;2023-12-29T12:32:22;12.98;;;10.23;;
42742;SDS011;28397;44.552;-0.848;2023-12-29T12:34:49;11.70;;;9.43;;
42742;SDS011;28397;44.552;-0.848;2023-12-29T12:37:25;10.80;;;9.70;;
42742;SDS011;28397;44.552;-0.848;2023-12-29T12:39:51;16.92;;;15.13;;
42742;SDS011;28397;44.552;-0.848;2023-12-29T12:42:18;12.90;;;10.85;;
42742;SDS011;28397;44.552;-0.848;2023-12-29T12:47:44;13.88;;;12.32;;
42742;SDS011;28397;44.552;-0.848;2023-12-29T12:50:15;11.80;;;10.10;;
42742;SDS011;28397;44.552;-0.848;2023-12-29T12:52:41;15.13;;;11.70;;
42742;SDS011;28397;44.552;-0.848;2023-12-29T12:55:07;11.55;;;10.07;;
42742;SDS011;28397;44.552;-0.848;2023-12-29T12:57:33;11.98;;;9.90;;
42742;SDS011;28397;44.552;-0.848;2023-12-29T13:00:00;11.18;;;9.82;;
42742;SDS011;28397;44.552;-0.848;2023-12-29T13:02:27;12.25;;;10.18;;
42742;SDS011;28397;44.552;-0.848;2023-12-29T13:04:55;14.90;;;9.77;;
42742;SDS011;28397;44.552;-0.848;2023-12-29T13:07:21;14.15;;;10.52;;
42742;SDS011;28397;44.552;-0.848;2023-12-29T13:09:47;13.63;;;9.55;;
42742;SDS011;28397;44.552;-0.848;2023-12-29T13:12:15;13.70;;;10.07;;
42742;SDS011;28397;44.552;-0.848;2023-12-29T13:14:41;15.27;;;10.70;;
42742;SDS011;28397;44.552;-0.848;2023-12-29T13:17:08;15.02;;;9.52;;
42742;SDS011;28397;44.552;-0.848;2023-12-29T13:19:37;19.40;;;9.30;;
42742;SDS011;28397;44.552;-0.848;2023-12-29T13:22:07;16.10;;;8.68;;
42742;SDS011;28397;44.552;-0.848;2023-12-29T13:24:34;17.77;;;8.88;;
42742;SDS011;28397;44.552;-0.848;2023-12-29T13:27:06;15.95;;;8.75;;
42742;SDS011;28397;44.552;-0.848;2023-12-29T13:29:35;14.63;;;9.00;;
42742;SDS011;28397;44.552;-0.848;2023-12-29T13:32:04;17.15;;;8.68;;
42742;SDS011;28397;44.552;-0.848;2023-12-29T13:37:24;16.52;;;8.45;;
42742;SDS011;28397;44.552;-0.848;2023-12-29T13:42:47;18.35;;;8.60;;
42742;SDS011;28397;44.552;-0.848;2023-12-29T13:45:15;16.80;;;8.80;;
42742;SDS011;28397;44.552;-0.848;2023-12-29T13:47:43;14.98;;;8.90;;
42742;SDS011;28397;44.552;-0.848;2023-12-29T13:50:11;17.50;;;9.65;;
42742;SDS011;28397;44.552;-0.848;2023-12-29T13:52:37;20.85;;;9.18;;
42742;SDS011;28397;44.552;-0.848;2023-12-29T13:55:03;13.88;;;8.23;;
42742;SDS011;28397;44.552;-0.848;2023-12-29T13:57:33;19.13;;;8.90;;
42742;SDS011;28397;44.552;-0.848;2023-12-29T14:02:41;19.58;;;9.30;;
42742;SDS011;28397;44.552;-0.848;2023-12-29T14:07:43;17.60;;;8.25;;
42742;SDS011;28397;44.552;-0.848;2023-12-29T14:10:17;18.88;;;7.95;;
42742;SDS011;28397;44.552;-0.848;2023-12-29T14:12:43;19.58;;;7.55;;
42742;SDS011;28397;44.552;-0.848;2023-12-29T14:15:09;15.93;;;7.03;;
42742;SDS011;28397;44.552;-0.848;2023-12-29T14:17:35;18.58;;;8.13;;
42742;SDS011;28397;44.552;-0.848;2023-12-29T14:20:03;19.50;;;6.78;;
42742;SDS011;28397;44.552;-0.848;2023-12-29T14:22:31;17.88;;;6.28;;
42742;SDS011;28397;44.552;-0.848;2023-12-29T14:25:01;18.88;;;6.93;;
42742;SDS011;28397;44.552;-0.848;2023-12-29T14:27:28;18.00;;;6.55;;
42742;SDS011;28397;44.552;-0.848;2023-12-29T14:29:55;18.17;;;6.00;;
42742;SDS011;28397;44.552;-0.848;2023-12-29T14:32:21;13.60;;;5.70;;
42742;SDS011;28397;44.552;-0.848;2023-12-29T14:34:50;14.70;;;6.10;;
42742;SDS011;28397;44.552;-0.848;2023-12-29T14:37:21;18.15;;;6.03;;
42742;SDS011;28397;44.552;-0.848;2023-12-29T14:39:50;23.17;;;12.43;;
42742;SDS011;28397;44.552;-0.848;2023-12-29T14:42:16;18.65;;;8.30;;
42742;SDS011;28397;44.552;-0.848;2023-12-29T14:44:45;17.15;;;7.68;;
42742;SDS011;28397;44.552;-0.848;2023-12-29T14:47:11;18.25;;;8.18;;